createdAt,value
2022-10-30T00:01:02.944Z,54.74
2022-10-30T00:03:29.587Z,54.80
2022-10-30T00:05:56.204Z,55.17
2022-10-30T00:08:25.622Z,55.70
2022-10-30T00:10:52.658Z,55.60
2022-10-30T00:13:22.767Z,55.90
2022-10-30T00:15:53.756Z,55.98
2022-10-30T00:18:21.174Z,56.15
2022-10-30T00:20:48.575Z,56.23
2022-10-30T00:23:15.727Z,56.57
2022-10-30T00:25:42.335Z,56.80
2022-10-30T00:28:09.172Z,57.13
2022-10-30T00:30:36.653Z,57.32
2022-10-30T00:33:03.734Z,57.10
2022-10-30T00:35:31.368Z,56.71
2022-10-30T00:37:58.450Z,57.89
2022-10-30T00:40:25.357Z,58.11
2022-10-30T00:42:52.229Z,58.25
2022-10-30T00:45:19.384Z,58.32
2022-10-30T00:47:57.592Z,58.19
2022-10-30T00:50:37.546Z,58.87
2022-10-30T00:53:08.840Z,58.68
2022-10-30T00:55:45.056Z,57.94
2022-10-30T00:58:15.450Z,57.59
2022-10-30T01:00:46.478Z,59.02
2022-10-30T01:03:13.416Z,59.65
2022-10-30T01:05:42.371Z,58.30
2022-10-30T01:08:08.995Z,57.96
2022-10-30T01:10:35.790Z,57.29
2022-10-30T01:13:03.349Z,56.92
2022-10-30T01:15:44.041Z,57.27
2022-10-30T01:18:30.729Z,56.65
2022-10-30T01:21:09.436Z,57.13
2022-10-30T01:24:01.799Z,56.88
2022-10-30T01:26:46.862Z,57.14
2022-10-30T01:29:31.990Z,58.47
2022-10-30T01:32:29.540Z,58.45
2022-10-30T01:35:32.635Z,58.24
2022-10-30T01:38:12.609Z,57.75
2022-10-30T01:40:39.197Z,57.43
2022-10-30T01:43:05.846Z,56.97
2022-10-30T01:45:52.807Z,57.26
2022-10-30T01:48:42.210Z,56.89
2022-10-30T01:51:17.619Z,56.82
2022-10-30T01:54:07.430Z,57.57
2022-10-30T01:57:03.086Z,57.52
2022-10-30T01:59:37.196Z,57.47
2022-10-30T02:02:04.993Z,57.36
2022-10-30T02:04:32.807Z,56.88
2022-10-30T02:07:00.336Z,57.55
2022-10-30T02:09:27.764Z,57.97
2022-10-30T02:11:56.171Z,57.45
2022-10-30T02:14:31.500Z,57.35
2022-10-30T02:17:00.687Z,57.10
2022-10-30T02:19:27.329Z,57.54
2022-10-30T02:21:54.054Z,57.30
2022-10-30T02:24:20.907Z,58.28
2022-10-30T02:26:47.468Z,58.05
2022-10-30T02:29:14.183Z,58.58
2022-10-30T02:31:40.829Z,58.83
2022-10-30T02:34:07.405Z,58.39
2022-10-30T02:36:33.980Z,57.63
2022-10-30T02:39:00.793Z,58.41
2022-10-30T02:41:27.401Z,58.69
2022-10-30T02:43:54.011Z,58.83
2022-10-30T02:46:21.106Z,60.79
2022-10-30T02:48:47.861Z,60.29
2022-10-30T02:51:14.528Z,60.39
2022-10-30T02:53:41.199Z,60.19
2022-10-30T02:56:10.290Z,59.96
2022-10-30T02:58:37.114Z,60.67
2022-10-30T03:01:30.095Z,60.42
2022-10-30T03:03:56.796Z,60.72
2022-10-30T03:06:23.706Z,60.10
2022-10-30T03:08:50.339Z,60.62
2022-10-30T03:11:18.964Z,61.46
2022-10-30T03:13:46.938Z,60.66
2022-10-30T03:16:16.278Z,61.04
2022-10-30T03:18:43.182Z,60.73
2022-10-30T03:21:13.223Z,61.03
2022-10-30T03:23:39.918Z,61.30
2022-10-30T03:26:06.870Z,60.69
2022-10-30T03:28:33.733Z,60.15
2022-10-30T03:31:02.831Z,60.11
2022-10-30T03:33:29.886Z,61.96
2022-10-30T03:35:56.857Z,61.97
2022-10-30T03:38:23.479Z,61.61
2022-10-30T03:40:50.322Z,62.73
2022-10-30T03:43:16.950Z,63.20
2022-10-30T03:45:50.845Z,63.76
2022-10-30T03:48:18.835Z,63.31
2022-10-30T03:50:45.994Z,62.19
2022-10-30T03:53:13.071Z,61.29
2022-10-30T03:55:39.976Z,62.29
2022-10-30T03:58:07.070Z,63.61
2022-10-30T04:00:35.478Z,62.71
2022-10-30T04:03:03.001Z,61.53
2022-10-30T04:05:29.653Z,62.52
2022-10-30T04:08:01.710Z,62.53
2022-10-30T04:10:28.895Z,61.97
2022-10-30T04:13:01.779Z,61.02
2022-10-30T04:15:28.474Z,61.37
2022-10-30T04:17:55.400Z,61.86
2022-10-30T04:20:23.989Z,61.06
2022-10-30T04:22:56.403Z,61.43
2022-10-30T04:25:23.495Z,61.83
2022-10-30T04:27:50.175Z,61.63
2022-10-30T04:30:16.774Z,61.90
2022-10-30T04:32:51.512Z,61.93
2022-10-30T04:35:20.036Z,61.06
2022-10-30T04:37:57.775Z,61.00
2022-10-30T04:40:25.993Z,61.30
2022-10-30T04:42:52.745Z,60.57
2022-10-30T04:45:19.623Z,60.13
2022-10-30T04:47:46.421Z,60.39
2022-10-30T04:50:13.856Z,60.45
2022-10-30T04:52:41.009Z,60.21
2022-10-30T04:55:08.957Z,61.05
2022-10-30T04:57:36.986Z,61.27
2022-10-30T05:00:06.481Z,60.75
2022-10-30T05:02:37.239Z,60.51
2022-10-30T05:05:05.110Z,60.19
2022-10-30T05:07:31.772Z,60.19
2022-10-30T05:09:58.376Z,61.88
2022-10-30T05:12:25.069Z,62.24
2022-10-30T05:14:51.684Z,62.20
2022-10-30T05:17:18.297Z,61.14
2022-10-30T05:19:44.989Z,61.36
2022-10-30T05:22:12.799Z,61.52
2022-10-30T05:24:39.417Z,60.79
2022-10-30T05:27:06.112Z,61.07
2022-10-30T05:29:32.705Z,60.28
2022-10-30T05:31:59.438Z,60.52
2022-10-30T05:34:26.114Z,60.73
2022-10-30T05:36:52.707Z,59.64
2022-10-30T05:39:19.351Z,60.96
2022-10-30T05:41:45.978Z,61.65
2022-10-30T05:44:12.624Z,61.62
2022-10-30T05:46:39.236Z,60.99
2022-10-30T05:49:05.971Z,60.72
2022-10-30T05:51:36.571Z,60.27
2022-10-30T05:54:06.543Z,60.98
2022-10-30T05:56:33.161Z,60.64
2022-10-30T05:58:59.824Z,60.39
2022-10-30T06:01:26.622Z,60.23
2022-10-30T06:03:53.415Z,60.21
2022-10-30T06:06:20.013Z,60.38
2022-10-30T06:08:46.815Z,60.13
2022-10-30T06:11:13.442Z,60.23
2022-10-30T06:13:40.489Z,59.89
2022-10-30T06:16:07.273Z,60.44
2022-10-30T06:18:33.888Z,60.42
2022-10-30T06:21:00.527Z,60.25
2022-10-30T06:23:27.184Z,59.90
2022-10-30T06:25:53.824Z,60.11
2022-10-30T06:28:21.133Z,60.18
2022-10-30T06:30:48.005Z,60.32
2022-10-30T06:33:15.000Z,61.36
2022-10-30T06:35:41.588Z,61.58
2022-10-30T06:38:10.103Z,61.13
2022-10-30T06:40:36.679Z,60.04
2022-10-30T06:43:03.476Z,60.22
2022-10-30T06:45:30.192Z,60.01
2022-10-30T06:47:57.479Z,59.70
2022-10-30T06:50:24.459Z,59.29
2022-10-30T06:52:51.305Z,59.28
2022-10-30T06:55:18.174Z,59.11
2022-10-30T06:57:44.786Z,59.13
2022-10-30T07:00:12.912Z,59.01
2022-10-30T07:02:39.563Z,58.72
2022-10-30T07:05:06.394Z,58.55
2022-10-30T07:07:33.146Z,58.38
2022-10-30T07:09:59.818Z,58.24
2022-10-30T07:12:26.462Z,58.94
2022-10-30T07:14:53.100Z,60.15
2022-10-30T07:17:19.708Z,59.35
2022-10-30T07:19:46.367Z,59.12
2022-10-30T07:22:13.011Z,58.46
2022-10-30T07:24:39.610Z,58.61
2022-10-30T07:27:06.181Z,57.70
2022-10-30T07:29:32.774Z,57.90
2022-10-30T07:32:03.038Z,58.82
2022-10-30T07:34:30.361Z,58.21
2022-10-30T07:36:57.179Z,58.58
2022-10-30T07:39:23.815Z,57.06
2022-10-30T07:41:50.713Z,57.71
2022-10-30T07:44:17.684Z,57.67
2022-10-30T07:46:44.358Z,57.88
2022-10-30T07:49:11.109Z,57.56
2022-10-30T07:51:37.717Z,57.46
2022-10-30T07:54:04.365Z,57.75
2022-10-30T07:56:30.976Z,56.85
2022-10-30T07:58:57.590Z,56.56
2022-10-30T08:01:24.285Z,57.07
2022-10-30T08:03:50.938Z,57.24
2022-10-30T08:06:20.078Z,57.75
2022-10-30T08:08:49.656Z,56.97
2022-10-30T08:11:16.260Z,56.99
2022-10-30T08:13:42.858Z,56.82
2022-10-30T08:16:09.511Z,55.47
2022-10-30T08:18:36.227Z,55.80
2022-10-30T08:21:02.862Z,55.41
2022-10-30T08:23:29.554Z,56.75
2022-10-30T08:26:01.831Z,55.65
2022-10-30T08:28:31.789Z,55.93
2022-10-30T08:31:00.760Z,55.29
2022-10-30T08:33:27.449Z,55.59
2022-10-30T08:35:56.820Z,54.69
2022-10-30T08:38:24.118Z,54.43
2022-10-30T08:40:50.930Z,56.08
2022-10-30T08:43:17.963Z,54.79
2022-10-30T08:45:44.886Z,55.26
2022-10-30T08:48:13.722Z,54.01
2022-10-30T08:50:40.767Z,53.61
2022-10-30T08:53:10.405Z,52.96
2022-10-30T08:55:37.244Z,52.94
2022-10-30T08:58:03.865Z,53.84
2022-10-30T09:00:31.319Z,53.37
2022-10-30T09:02:58.659Z,53.11
2022-10-30T09:05:25.694Z,53.21
2022-10-30T09:07:58.072Z,52.15
2022-10-30T09:10:24.926Z,52.86
2022-10-30T09:12:56.224Z,52.20
2022-10-30T09:15:23.204Z,52.75
2022-10-30T09:17:59.072Z,52.11
2022-10-30T09:20:26.433Z,52.31
2022-10-30T09:22:53.091Z,52.27
2022-10-30T09:25:20.171Z,52.00
2022-10-30T09:27:47.022Z,51.70
2022-10-30T09:30:14.461Z,51.97
2022-10-30T09:32:41.282Z,51.82
2022-10-30T09:35:09.130Z,52.60
2022-10-30T09:37:39.732Z,51.90
2022-10-30T09:40:07.915Z,51.85
2022-10-30T09:42:51.202Z,51.73
2022-10-30T09:45:46.361Z,51.87
2022-10-30T09:48:24.912Z,51.47
2022-10-30T09:51:10.153Z,50.92
2022-10-30T09:53:55.374Z,51.35
2022-10-30T09:56:35.071Z,50.91
2022-10-30T09:59:20.241Z,50.74
2022-10-30T10:02:17.417Z,48.75
2022-10-30T10:04:50.897Z,48.62
2022-10-30T10:07:24.039Z,48.97
2022-10-30T10:09:56.770Z,48.98
2022-10-30T10:12:26.354Z,48.49
2022-10-30T10:14:56.466Z,48.37
2022-10-30T10:17:34.876Z,48.12
2022-10-30T10:20:04.121Z,47.86
2022-10-30T10:22:39.358Z,47.62
2022-10-30T10:25:13.732Z,46.91
2022-10-30T10:27:53.040Z,47.05
2022-10-30T10:30:22.471Z,46.87
2022-10-30T10:33:03.947Z,47.22
2022-10-30T10:35:43.431Z,45.86
2022-10-30T10:38:15.823Z,45.75
2022-10-30T10:40:51.511Z,45.96
2022-10-30T10:43:52.032Z,45.02
2022-10-30T10:46:18.707Z,45.14
2022-10-30T10:48:57.222Z,45.52
2022-10-30T10:51:36.152Z,45.15
2022-10-30T10:54:11.604Z,44.12
2022-10-30T10:56:47.656Z,44.09
2022-10-30T10:59:22.736Z,42.53
2022-10-30T11:02:03.598Z,42.62
2022-10-30T11:04:33.008Z,42.16
2022-10-30T11:07:12.902Z,41.69
2022-10-30T11:09:42.075Z,40.53
2022-10-30T11:12:09.623Z,40.43
2022-10-30T11:14:37.841Z,38.93
2022-10-30T11:17:44.030Z,39.48
2022-10-30T11:20:32.389Z,39.22
2022-10-30T11:22:59.297Z,38.55
2022-10-30T11:25:40.928Z,39.42
2022-10-30T11:28:48.826Z,39.08
2022-10-30T11:31:27.652Z,39.38
2022-10-30T11:33:54.524Z,39.43
2022-10-30T11:36:25.573Z,39.25
2022-10-30T11:38:57.227Z,39.37
2022-10-30T11:41:24.538Z,38.62
2022-10-30T11:43:51.352Z,38.20
2022-10-30T11:46:23.408Z,37.77
2022-10-30T11:48:54.989Z,38.14
2022-10-30T11:51:35.319Z,37.17
2022-10-30T11:54:02.528Z,37.14
2022-10-30T11:56:30.757Z,35.83
2022-10-30T11:59:00.110Z,37.43
2022-10-30T12:02:00.946Z,38.27
2022-10-30T12:04:33.674Z,37.95
2022-10-30T12:07:24.510Z,38.13
2022-10-30T12:09:51.203Z,38.08
2022-10-30T12:12:38.648Z,37.58
2022-10-30T12:15:36.114Z,37.67
2022-10-30T12:18:07.293Z,37.50
2022-10-30T12:20:37.869Z,38.10
2022-10-30T12:23:12.826Z,37.93
2022-10-30T12:25:39.905Z,38.12
2022-10-30T12:28:13.238Z,36.88
2022-10-30T12:30:50.700Z,37.17
2022-10-30T12:33:34.311Z,37.23
2022-10-30T12:36:07.033Z,37.04
2022-10-30T12:38:45.059Z,36.44
2022-10-30T12:41:32.648Z,36.97
2022-10-30T12:44:19.457Z,36.39
2022-10-30T12:46:51.668Z,36.37
2022-10-30T12:49:25.461Z,36.22
2022-10-30T12:51:57.090Z,35.10
2022-10-30T12:54:41.938Z,34.55
2022-10-30T12:57:13.822Z,34.40
2022-10-30T13:00:00.716Z,34.54
2022-10-30T13:02:39.235Z,33.89
2022-10-30T13:05:19.854Z,33.86
2022-10-30T13:07:55.533Z,34.37
2022-10-30T13:10:27.398Z,34.17
2022-10-30T13:12:59.044Z,33.89
2022-10-30T13:15:30.944Z,33.65
2022-10-30T13:18:14.182Z,33.68
2022-10-30T13:20:43.277Z,33.75
2022-10-30T13:23:16.755Z,33.54
2022-10-30T13:26:30.820Z,33.39
2022-10-30T13:29:16.439Z,33.36
2022-10-30T13:31:48.915Z,32.94
2022-10-30T13:34:30.761Z,32.92
2022-10-30T13:37:15.834Z,32.79
2022-10-30T13:40:03.732Z,32.46
2022-10-30T13:42:56.296Z,32.46
2022-10-30T13:45:32.029Z,32.72
2022-10-30T13:48:26.593Z,33.80
2022-10-30T13:51:20.995Z,35.00
2022-10-30T13:53:54.207Z,35.29
2022-10-30T13:56:22.544Z,35.19
2022-10-30T13:59:03.397Z,35.94
2022-10-30T14:01:39.832Z,35.66
2022-10-30T14:04:17.645Z,35.82
2022-10-30T14:07:08.505Z,35.67
2022-10-30T14:09:59.515Z,35.41
2022-10-30T14:12:52.879Z,35.88
2022-10-30T14:15:27.594Z,36.35
2022-10-30T14:18:12.341Z,36.47
2022-10-30T14:20:53.084Z,36.07
2022-10-30T14:23:19.622Z,36.46
2022-10-30T14:26:04.745Z,36.68
2022-10-30T14:28:45.348Z,36.99
2022-10-30T14:31:17.685Z,36.89
2022-10-30T14:33:51.406Z,36.89
2022-10-30T14:36:39.564Z,36.73
2022-10-30T14:39:14.803Z,36.62
2022-10-30T14:41:47.573Z,36.48
2022-10-30T14:44:25.027Z,36.89
2022-10-30T14:46:51.550Z,37.13
2022-10-30T14:49:27.178Z,36.45
2022-10-30T14:52:14.427Z,36.52
2022-10-30T14:55:26.032Z,36.93
2022-10-30T14:58:03.179Z,37.22
2022-10-30T15:00:38.622Z,37.23
2022-10-30T15:03:18.381Z,37.33
2022-10-30T15:05:56.514Z,37.90
2022-10-30T15:08:49.352Z,38.50
2022-10-30T15:11:24.870Z,38.04
2022-10-30T15:14:12.548Z,38.41
2022-10-30T15:16:50.887Z,38.54
2022-10-30T15:19:23.000Z,38.30
2022-10-30T15:21:52.916Z,38.67
2022-10-30T15:24:25.851Z,38.56
2022-10-30T15:26:58.779Z,38.85
2022-10-30T15:29:30.190Z,38.83
2022-10-30T15:32:19.961Z,38.79
2022-10-30T15:35:00.244Z,38.94
2022-10-30T15:37:27.851Z,39.25
2022-10-30T15:40:11.638Z,39.21
2022-10-30T15:42:39.495Z,39.33
2022-10-30T15:45:11.775Z,39.62
2022-10-30T15:47:46.387Z,39.30
2022-10-30T15:50:13.734Z,39.78
2022-10-30T15:52:42.889Z,39.65
2022-10-30T15:55:15.688Z,39.82
2022-10-30T15:58:02.971Z,39.84
2022-10-30T16:00:36.489Z,39.66
2022-10-30T16:03:11.981Z,40.18
2022-10-30T16:05:38.640Z,39.90
2022-10-30T16:08:14.333Z,40.41
2022-10-30T16:10:43.353Z,40.75
2022-10-30T16:13:18.805Z,40.70
2022-10-30T16:15:47.545Z,40.66
2022-10-30T16:18:23.793Z,40.86
2022-10-30T16:20:54.540Z,40.68
2022-10-30T16:23:21.984Z,40.63
2022-10-30T16:25:54.679Z,39.97
2022-10-30T16:28:37.672Z,40.27
2022-10-30T16:31:16.038Z,40.43
2022-10-30T16:33:46.408Z,40.58
2022-10-30T16:36:17.789Z,40.02
2022-10-30T16:38:47.600Z,40.27
2022-10-30T16:41:14.716Z,40.26
2022-10-30T16:43:48.365Z,40.26
2022-10-30T16:46:14.908Z,40.25
2022-10-30T16:48:50.933Z,40.76
2022-10-30T16:51:18.641Z,40.61
2022-10-30T16:53:50.418Z,40.88
2022-10-30T16:56:22.546Z,40.85
2022-10-30T16:58:49.724Z,41.08
2022-10-30T17:01:16.834Z,40.76
2022-10-30T17:03:43.914Z,41.06
2022-10-30T17:06:43.399Z,41.25
2022-10-30T17:09:34.379Z,41.07
2022-10-30T17:12:12.992Z,41.25
2022-10-30T17:15:14.302Z,41.20
2022-10-30T17:17:42.047Z,41.78
2022-10-30T17:20:34.655Z,41.81
2022-10-30T17:23:27.649Z,41.80
2022-10-30T17:25:55.216Z,41.34
2022-10-30T17:28:33.074Z,41.57
2022-10-30T17:31:29.815Z,41.16
2022-10-30T17:34:19.811Z,41.46
2022-10-30T17:36:48.035Z,41.43
2022-10-30T17:39:15.306Z,41.21
2022-10-30T17:41:43.099Z,40.99
2022-10-30T17:44:19.631Z,41.02
2022-10-30T17:46:46.367Z,41.60
2022-10-30T17:49:25.210Z,42.71
2022-10-30T17:51:52.194Z,42.59
2022-10-30T17:54:18.971Z,42.69
2022-10-30T17:56:45.612Z,42.18
2022-10-30T17:59:12.372Z,41.82
2022-10-30T18:01:39.348Z,41.95
2022-10-30T18:04:17.905Z,42.19
2022-10-30T18:06:48.150Z,42.60
2022-10-30T18:09:15.067Z,42.49
2022-10-30T18:11:41.811Z,42.74
2022-10-30T18:14:11.185Z,42.48
2022-10-30T18:16:38.046Z,42.25
2022-10-30T18:19:09.214Z,42.36
2022-10-30T18:21:47.978Z,42.51
2022-10-30T18:24:16.051Z,43.35
2022-10-30T18:26:48.634Z,43.69
2022-10-30T18:29:15.382Z,43.47
2022-10-30T18:31:42.059Z,44.02
2022-10-30T18:34:18.342Z,43.85
2022-10-30T18:36:45.110Z,43.12
2022-10-30T18:39:13.009Z,43.20
2022-10-30T18:41:44.744Z,42.82
2022-10-30T18:44:15.860Z,42.76
2022-10-30T18:46:42.867Z,42.10
2022-10-30T18:49:09.574Z,41.96
2022-10-30T18:51:36.315Z,42.08
2022-10-30T18:54:03.943Z,42.05
2022-10-30T18:56:35.159Z,41.79
2022-10-30T18:59:05.454Z,42.24
2022-10-30T19:01:32.776Z,42.85
2022-10-30T19:04:04.480Z,43.07
2022-10-30T19:06:36.320Z,43.79
2022-10-30T19:09:20.562Z,44.32
2022-10-30T19:11:47.566Z,44.13
2022-10-30T19:14:29.063Z,43.96
2022-10-30T19:16:59.968Z,43.05
2022-10-30T19:19:26.580Z,42.72
2022-10-30T19:22:00.897Z,41.84
2022-10-30T19:24:39.494Z,41.87
2022-10-30T19:27:11.809Z,41.79
2022-10-30T19:29:39.584Z,42.04
2022-10-30T19:32:11.474Z,43.04
2022-10-30T19:34:40.620Z,42.03
2022-10-30T19:37:09.324Z,43.30
2022-10-30T19:39:38.265Z,43.99
2022-10-30T19:42:04.958Z,44.45
2022-10-30T19:44:41.270Z,44.07
2022-10-30T19:47:17.114Z,46.26
2022-10-30T19:52:42.147Z,43.58
2022-10-30T19:55:24.005Z,43.15
2022-10-30T19:57:50.931Z,43.33
2022-10-30T20:00:35.831Z,42.85
2022-10-30T20:03:10.492Z,42.63
2022-10-30T20:05:40.739Z,42.80
2022-10-30T20:08:39.953Z,42.59
2022-10-30T20:11:07.072Z,42.83
2022-10-30T20:13:42.014Z,41.75
2022-10-30T20:16:14.140Z,41.59
2022-10-30T20:18:44.230Z,41.09
2022-10-30T20:21:30.186Z,41.77
2022-10-30T20:23:58.049Z,41.67
2022-10-30T20:26:40.265Z,41.83
2022-10-30T20:31:51.515Z,43.04
2022-10-30T20:34:22.467Z,42.94
2022-10-30T20:36:51.780Z,42.93
2022-10-30T20:39:26.709Z,42.75
2022-10-30T20:41:56.963Z,41.76
2022-10-30T20:44:23.547Z,41.28
2022-10-30T20:46:50.441Z,41.70
2022-10-30T20:49:18.397Z,42.28
2022-10-30T20:51:51.372Z,42.47
2022-10-30T20:54:27.221Z,42.92
2022-10-30T20:56:53.868Z,43.46
2022-10-30T20:59:23.992Z,42.61
2022-10-30T21:01:54.026Z,42.75
2022-10-30T21:04:20.725Z,42.33
2022-10-30T21:09:28.009Z,43.23
2022-10-30T21:11:57.445Z,42.63
2022-10-30T21:14:24.050Z,43.28
2022-10-30T21:17:01.528Z,42.13
2022-10-30T21:19:35.880Z,42.57
2022-10-30T21:22:02.537Z,41.98
2022-10-30T21:24:34.304Z,42.43
2022-10-30T21:27:09.269Z,42.42
2022-10-30T21:29:36.480Z,43.34
2022-10-30T21:32:09.087Z,43.36
2022-10-30T21:34:47.227Z,43.74
2022-10-30T21:37:20.182Z,43.44
2022-10-30T21:39:47.562Z,44.13
2022-10-30T21:42:24.229Z,43.38
2022-10-30T21:44:52.367Z,42.94
2022-10-30T21:47:18.959Z,42.95
2022-10-30T21:49:45.558Z,43.70
2022-10-30T21:52:23.069Z,43.74
2022-10-30T21:54:55.175Z,43.81
2022-10-30T21:57:21.797Z,43.78
2022-10-30T21:59:48.903Z,44.30
2022-10-30T22:02:16.108Z,44.46
2022-10-30T22:04:49.100Z,43.87
2022-10-30T22:07:22.525Z,43.30
2022-10-30T22:09:52.483Z,42.60
2022-10-30T22:12:25.535Z,42.30
2022-10-30T22:15:00.266Z,42.00
2022-10-30T22:17:33.953Z,41.24
2022-10-30T22:20:07.770Z,41.65
2022-10-30T22:22:34.371Z,41.09
2022-10-30T22:25:02.900Z,41.13
2022-10-30T22:27:36.057Z,41.88
2022-10-30T22:30:08.669Z,41.45
2022-10-30T22:32:41.834Z,40.80
2022-10-30T22:35:19.580Z,41.13
2022-10-30T22:37:56.027Z,40.63
2022-10-30T22:40:33.242Z,40.59
2022-10-30T22:43:02.278Z,40.22
2022-10-30T22:45:33.969Z,40.29
2022-10-30T22:48:04.877Z,40.37
2022-10-30T22:50:31.636Z,39.96
2022-10-30T22:53:08.498Z,40.01
2022-10-30T22:55:37.091Z,40.05
2022-10-30T22:58:04.047Z,40.98
2022-10-30T23:00:34.393Z,40.98
2022-10-30T23:03:01.425Z,40.60
2022-10-30T23:05:35.633Z,40.51
2022-10-30T23:08:02.316Z,41.69
2022-10-30T23:10:36.239Z,41.84
2022-10-30T23:13:04.300Z,41.89
2022-10-30T23:18:22.656Z,41.45
2022-10-30T23:20:55.073Z,41.57
2022-10-30T23:23:29.181Z,41.24
2022-10-30T23:26:02.911Z,41.06
2022-10-30T23:28:32.444Z,41.78
2022-10-30T23:31:08.654Z,42.14
2022-10-30T23:33:40.834Z,42.21
2022-10-30T23:39:01.860Z,42.45
2022-10-30T23:41:35.086Z,42.88
2022-10-30T23:44:10.567Z,42.74
2022-10-30T23:46:43.850Z,42.82
2022-10-30T23:49:11.630Z,42.95
2022-10-30T23:51:46.869Z,42.63
2022-10-30T23:54:21.555Z,42.63
2022-10-30T23:56:55.322Z,42.12
2022-10-30T23:59:27.524Z,42.20
